Terminal Aerodrome Forecast
Issued by NWS Sterling, VA

Current Version | Previous Version | Graphics & Text | Print | Product List | Glossary Off
Versions: 1 2 3 4 5 6 7 8 9 10 11 12 13 14 15 16 17 18 19 20

000
FTUS41 KLWX 230500
TAFMRB
TAF
KMRB 230537Z 2306/2406 16004KT P6SM SKC
     FM231500 23007KT P6SM SCT050 BKN100
     FM232200 29008KT P6SM -SHRA VCTS SCT040CB BKN070
     FM240200 32005KT P6SM BKN060=

USA.gov is the U.S. government's official web portal to all federal, state and local government web resources and services.